sensor_id;sensor_type;location;lat;lon;timestamp;P1;durP1;ratioP1;P2;durP2;ratioP2
62679;SDS011;48746;55.578;37.902;2022-09-09T00:04:58;3.90;;;1.38;;
62679;SDS011;48746;55.578;37.902;2022-09-09T00:07:05;3.00;;;1.45;;
62679;SDS011;48746;55.578;37.902;2022-09-09T00:18:21;2.83;;;1.20;;
62679;SDS011;48746;55.578;37.902;2022-09-09T00:23:58;3.50;;;1.20;;
62679;SDS011;48746;55.578;37.902;2022-09-09T00:29:28;2.53;;;1.20;;
62679;SDS011;48746;55.578;37.902;2022-09-09T00:32:07;4.93;;;1.42;;
62679;SDS011;48746;55.578;37.902;2022-09-09T00:34:48;2.08;;;1.25;;
62679;SDS011;48746;55.578;37.902;2022-09-09T00:37:35;4.25;;;1.02;;
62679;SDS011;48746;55.578;37.902;2022-09-09T00:40:11;6.00;;;1.40;;
62679;SDS011;48746;55.578;37.902;2022-09-09T00:42:44;1.77;;;1.20;;
62679;SDS011;48746;55.578;37.902;2022-09-09T00:46:00;2.55;;;1.20;;
62679;SDS011;48746;55.578;37.902;2022-09-09T00:48:08;4.22;;;1.30;;
62679;SDS011;48746;55.578;37.902;2022-09-09T00:56:12;2.40;;;1.17;;
62679;SDS011;48746;55.578;37.902;2022-09-09T00:58:42;2.75;;;1.30;;
62679;SDS011;48746;55.578;37.902;2022-09-09T01:01:11;2.05;;;1.17;;
62679;SDS011;48746;55.578;37.902;2022-09-09T01:06:29;4.00;;;1.17;;
62679;SDS011;48746;55.578;37.902;2022-09-09T01:28:30;1.77;;;1.20;;
62679;SDS011;48746;55.578;37.902;2022-09-09T01:31:03;3.25;;;1.30;;
62679;SDS011;48746;55.578;37.902;2022-09-09T01:33:37;2.42;;;1.20;;
62679;SDS011;48746;55.578;37.902;2022-09-09T01:36:08;2.17;;;1.40;;
62679;SDS011;48746;55.578;37.902;2022-09-09T01:39:04;2.05;;;1.10;;
62679;SDS011;48746;55.578;37.902;2022-09-09T01:44:39;2.65;;;1.38;;
62679;SDS011;48746;55.578;37.902;2022-09-09T01:47:05;3.67;;;1.30;;
62679;SDS011;48746;55.578;37.902;2022-09-09T01:49:34;3.15;;;1.30;;
62679;SDS011;48746;55.578;37.902;2022-09-09T01:52:09;2.45;;;1.20;;
62679;SDS011;48746;55.578;37.902;2022-09-09T01:54:37;1.40;;;0.95;;
62679;SDS011;48746;55.578;37.902;2022-09-09T01:59:57;1.30;;;1.13;;
62679;SDS011;48746;55.578;37.902;2022-09-09T02:05:45;1.63;;;1.05;;
62679;SDS011;48746;55.578;37.902;2022-09-09T02:08:33;1.58;;;1.05;;
62679;SDS011;48746;55.578;37.902;2022-09-09T02:11:15;3.40;;;1.10;;
62679;SDS011;48746;55.578;37.902;2022-09-09T02:14:08;1.15;;;1.05;;
62679;SDS011;48746;55.578;37.902;2022-09-09T02:19:16;2.35;;;1.20;;
62679;SDS011;48746;55.578;37.902;2022-09-09T02:22:00;2.75;;;1.27;;
62679;SDS011;48746;55.578;37.902;2022-09-09T02:24:27;3.05;;;1.27;;
62679;SDS011;48746;55.578;37.902;2022-09-09T02:27:07;1.88;;;1.10;;
62679;SDS011;48746;55.578;37.902;2022-09-09T02:29:37;2.03;;;1.30;;
62679;SDS011;48746;55.578;37.902;2022-09-09T02:32:08;2.63;;;1.15;;
62679;SDS011;48746;55.578;37.902;2022-09-09T02:34:40;4.35;;;1.20;;
62679;SDS011;48746;55.578;37.902;2022-09-09T02:37:09;5.22;;;1.48;;
62679;SDS011;48746;55.578;37.902;2022-09-09T02:39:38;4.47;;;1.52;;
62679;SDS011;48746;55.578;37.902;2022-09-09T02:42:08;5.15;;;1.30;;
62679;SDS011;48746;55.578;37.902;2022-09-09T02:44:35;3.42;;;1.30;;
62679;SDS011;48746;55.578;37.902;2022-09-09T02:55:50;2.83;;;1.13;;
62679;SDS011;48746;55.578;37.902;2022-09-09T02:58:21;1.58;;;1.17;;
62679;SDS011;48746;55.578;37.902;2022-09-09T03:04:06;2.03;;;1.00;;
62679;SDS011;48746;55.578;37.902;2022-09-09T03:06:32;1.90;;;1.10;;
62679;SDS011;48746;55.578;37.902;2022-09-09T03:09:08;5.00;;;1.30;;
62679;SDS011;48746;55.578;37.902;2022-09-09T03:14:43;4.65;;;1.35;;
62679;SDS011;48746;55.578;37.902;2022-09-09T03:17:12;3.95;;;1.48;;
62679;SDS011;48746;55.578;37.902;2022-09-09T03:19:45;3.15;;;1.50;;
62679;SDS011;48746;55.578;37.902;2022-09-09T03:22:12;3.20;;;1.55;;
62679;SDS011;48746;55.578;37.902;2022-09-09T03:24:41;3.92;;;1.15;;
62679;SDS011;48746;55.578;37.902;2022-09-09T03:27:07;5.93;;;2.13;;
62679;SDS011;48746;55.578;37.902;2022-09-09T03:29:35;7.07;;;2.65;;
62679;SDS011;48746;55.578;37.902;2022-09-09T03:32:05;4.30;;;1.50;;
62679;SDS011;48746;55.578;37.902;2022-09-09T03:34:31;8.55;;;2.88;;
62679;SDS011;48746;55.578;37.902;2022-09-09T03:36:58;2.40;;;1.38;;
62679;SDS011;48746;55.578;37.902;2022-09-09T03:39:25;7.15;;;2.65;;
62679;SDS011;48746;55.578;37.902;2022-09-09T03:41:51;8.57;;;2.38;;
62679;SDS011;48746;55.578;37.902;2022-09-09T03:44:18;4.82;;;1.63;;
62679;SDS011;48746;55.578;37.902;2022-09-09T03:46:45;6.53;;;1.65;;
62679;SDS011;48746;55.578;37.902;2022-09-09T03:49:13;4.68;;;2.25;;
62679;SDS011;48746;55.578;37.902;2022-09-09T03:51:40;3.67;;;1.88;;
62679;SDS011;48746;55.578;37.902;2022-09-09T03:54:11;5.95;;;2.42;;
62679;SDS011;48746;55.578;37.902;2022-09-09T03:56:37;8.40;;;2.28;;
62679;SDS011;48746;55.578;37.902;2022-09-09T03:59:04;6.07;;;1.98;;
62679;SDS011;48746;55.578;37.902;2022-09-09T04:04:36;5.55;;;2.38;;
62679;SDS011;48746;55.578;37.902;2022-09-09T04:07:03;3.28;;;2.10;;
62679;SDS011;48746;55.578;37.902;2022-09-09T04:09:32;2.25;;;1.55;;
62679;SDS011;48746;55.578;37.902;2022-09-09T04:11:59;4.20;;;2.15;;
62679;SDS011;48746;55.578;37.902;2022-09-09T04:14:25;5.93;;;2.53;;
62679;SDS011;48746;55.578;37.902;2022-09-09T04:16:55;4.82;;;2.88;;
62679;SDS011;48746;55.578;37.902;2022-09-09T04:19:25;7.75;;;2.05;;
62679;SDS011;48746;55.578;37.902;2022-09-09T04:21:52;5.15;;;2.15;;
62679;SDS011;48746;55.578;37.902;2022-09-09T04:24:20;6.28;;;2.15;;
62679;SDS011;48746;55.578;37.902;2022-09-09T04:26:48;3.13;;;1.73;;
62679;SDS011;48746;55.578;37.902;2022-09-09T04:29:15;2.78;;;1.88;;
62679;SDS011;48746;55.578;37.902;2022-09-09T04:31:44;5.35;;;2.30;;
62679;SDS011;48746;55.578;37.902;2022-09-09T04:34:12;3.78;;;2.20;;
62679;SDS011;48746;55.578;37.902;2022-09-09T04:36:38;5.13;;;2.08;;
62679;SDS011;48746;55.578;37.902;2022-09-09T04:39:06;1.98;;;1.70;;
62679;SDS011;48746;55.578;37.902;2022-09-09T04:41:32;4.82;;;1.80;;
62679;SDS011;48746;55.578;37.902;2022-09-09T04:43:58;4.30;;;1.85;;
62679;SDS011;48746;55.578;37.902;2022-09-09T04:46:26;6.25;;;2.28;;
62679;SDS011;48746;55.578;37.902;2022-09-09T04:48:52;5.25;;;2.00;;
62679;SDS011;48746;55.578;37.902;2022-09-09T04:51:21;7.75;;;1.90;;
62679;SDS011;48746;55.578;37.902;2022-09-09T04:53:49;6.00;;;2.47;;
62679;SDS011;48746;55.578;37.902;2022-09-09T04:56:17;4.97;;;1.90;;
62679;SDS011;48746;55.578;37.902;2022-09-09T04:58:49;4.40;;;2.15;;
62679;SDS011;48746;55.578;37.902;2022-09-09T05:01:19;3.45;;;1.90;;
62679;SDS011;48746;55.578;37.902;2022-09-09T05:03:49;6.28;;;2.13;;
62679;SDS011;48746;55.578;37.902;2022-09-09T05:06:19;3.78;;;1.80;;
62679;SDS011;48746;55.578;37.902;2022-09-09T05:14:30;3.25;;;2.03;;
62679;SDS011;48746;55.578;37.902;2022-09-09T05:16:58;5.47;;;2.03;;
62679;SDS011;48746;55.578;37.902;2022-09-09T05:19:24;4.18;;;1.95;;
62679;SDS011;48746;55.578;37.902;2022-09-09T05:21:52;5.22;;;2.00;;
62679;SDS011;48746;55.578;37.902;2022-09-09T05:24:24;5.53;;;2.15;;
62679;SDS011;48746;55.578;37.902;2022-09-09T05:26:54;6.95;;;2.00;;
62679;SDS011;48746;55.578;37.902;2022-09-09T05:29:23;4.85;;;2.13;;
62679;SDS011;48746;55.578;37.902;2022-09-09T05:31:50;4.53;;;1.90;;
62679;SDS011;48746;55.578;37.902;2022-09-09T05:34:19;4.75;;;1.70;;
62679;SDS011;48746;55.578;37.902;2022-09-09T05:36:46;4.32;;;2.10;;
62679;SDS011;48746;55.578;37.902;2022-09-09T05:39:14;5.63;;;2.00;;
62679;SDS011;48746;55.578;37.902;2022-09-09T05:41:40;3.45;;;1.83;;
62679;SDS011;48746;55.578;37.902;2022-09-09T05:44:07;4.88;;;1.60;;
62679;SDS011;48746;55.578;37.902;2022-09-09T05:46:37;3.90;;;1.65;;
62679;SDS011;48746;55.578;37.902;2022-09-09T05:49:03;10.82;;;1.60;;
62679;SDS011;48746;55.578;37.902;2022-09-09T05:51:32;5.15;;;1.67;;
62679;SDS011;48746;55.578;37.902;2022-09-09T05:54:02;4.40;;;1.60;;
62679;SDS011;48746;55.578;37.902;2022-09-09T05:56:33;4.88;;;1.52;;
62679;SDS011;48746;55.578;37.902;2022-09-09T05:58:59;3.80;;;1.58;;
62679;SDS011;48746;55.578;37.902;2022-09-09T06:01:31;4.13;;;1.50;;
62679;SDS011;48746;55.578;37.902;2022-09-09T06:03:59;3.38;;;1.50;;
62679;SDS011;48746;55.578;37.902;2022-09-09T06:06:30;4.53;;;1.88;;
62679;SDS011;48746;55.578;37.902;2022-09-09T06:09:00;3.25;;;1.55;;
62679;SDS011;48746;55.578;37.902;2022-09-09T06:11:33;4.50;;;1.55;;
62679;SDS011;48746;55.578;37.902;2022-09-09T06:13:59;3.72;;;1.63;;
62679;SDS011;48746;55.578;37.902;2022-09-09T06:16:28;2.65;;;1.48;;
62679;SDS011;48746;55.578;37.902;2022-09-09T06:18:56;7.22;;;1.60;;
62679;SDS011;48746;55.578;37.902;2022-09-09T06:23:56;3.13;;;1.70;;
62679;SDS011;48746;55.578;37.902;2022-09-09T06:26:24;6.82;;;1.80;;
62679;SDS011;48746;55.578;37.902;2022-09-09T06:28:53;3.97;;;1.50;;
62679;SDS011;48746;55.578;37.902;2022-09-09T06:31:25;3.30;;;1.05;;
62679;SDS011;48746;55.578;37.902;2022-09-09T06:33:59;6.50;;;1.23;;
62679;SDS011;48746;55.578;37.902;2022-09-09T06:36:29;1.27;;;0.95;;
62679;SDS011;48746;55.578;37.902;2022-09-09T06:38:57;2.78;;;1.35;;
62679;SDS011;48746;55.578;37.902;2022-09-09T06:41:25;7.03;;;1.65;;
62679;SDS011;48746;55.578;37.902;2022-09-09T06:43:54;1.88;;;1.27;;
62679;SDS011;48746;55.578;37.902;2022-09-09T06:46:32;1.73;;;1.23;;
62679;SDS011;48746;55.578;37.902;2022-09-09T06:48:59;1.33;;;0.98;;
62679;SDS011;48746;55.578;37.902;2022-09-09T06:51:30;2.80;;;1.15;;
62679;SDS011;48746;55.578;37.902;2022-09-09T06:53:58;1.23;;;0.70;;
62679;SDS011;48746;55.578;37.902;2022-09-09T06:56:35;1.80;;;0.75;;
62679;SDS011;48746;55.578;37.902;2022-09-09T06:59:06;1.45;;;0.73;;
62679;SDS011;48746;55.578;37.902;2022-09-09T07:01:38;1.00;;;0.90;;
62679;SDS011;48746;55.578;37.902;2022-09-09T07:04:17;0.60;;;0.60;;
62679;SDS011;48746;55.578;37.902;2022-09-09T07:06:44;3.63;;;1.20;;
62679;SDS011;48746;55.578;37.902;2022-09-09T07:09:16;1.40;;;1.00;;
62679;SDS011;48746;55.578;37.902;2022-09-09T07:11:47;2.97;;;0.93;;
62679;SDS011;48746;55.578;37.902;2022-09-09T07:14:15;15.73;;;3.23;;
62679;SDS011;48746;55.578;37.902;2022-09-09T07:19:14;0.77;;;0.77;;
62679;SDS011;48746;55.578;37.902;2022-09-09T07:21:41;1.05;;;0.63;;
62679;SDS011;48746;55.578;37.902;2022-09-09T07:24:10;11.80;;;1.27;;
62679;SDS011;48746;55.578;37.902;2022-09-09T07:26:38;3.15;;;1.00;;
62679;SDS011;48746;55.578;37.902;2022-09-09T07:29:07;2.30;;;0.80;;
62679;SDS011;48746;55.578;37.902;2022-09-09T07:34:42;2.53;;;0.70;;
62679;SDS011;48746;55.578;37.902;2022-09-09T07:37:09;0.68;;;0.47;;
62679;SDS011;48746;55.578;37.902;2022-09-09T07:39:44;0.80;;;0.60;;
62679;SDS011;48746;55.578;37.902;2022-09-09T07:42:10;1.25;;;0.85;;
62679;SDS011;48746;55.578;37.902;2022-09-09T07:44:38;0.85;;;0.80;;
62679;SDS011;48746;55.578;37.902;2022-09-09T07:47:09;5.55;;;0.95;;
62679;SDS011;48746;55.578;37.902;2022-09-09T07:49:41;3.25;;;0.88;;
62679;SDS011;48746;55.578;37.902;2022-09-09T07:52:08;1.10;;;0.90;;
62679;SDS011;48746;55.578;37.902;2022-09-09T07:54:36;3.05;;;0.75;;
62679;SDS011;48746;55.578;37.902;2022-09-09T07:57:04;1.73;;;0.93;;
62679;SDS011;48746;55.578;37.902;2022-09-09T07:59:34;2.25;;;0.75;;
62679;SDS011;48746;55.578;37.902;2022-09-09T08:02:01;0.68;;;0.68;;
62679;SDS011;48746;55.578;37.902;2022-09-09T08:04:30;0.75;;;0.68;;
62679;SDS011;48746;55.578;37.902;2022-09-09T08:06:57;2.83;;;0.73;;
62679;SDS011;48746;55.578;37.902;2022-09-09T08:09:26;0.68;;;0.68;;
62679;SDS011;48746;55.578;37.902;2022-09-09T08:12:01;2.65;;;0.70;;
62679;SDS011;48746;55.578;37.902;2022-09-09T08:14:28;2.15;;;0.60;;
62679;SDS011;48746;55.578;37.902;2022-09-09T08:16:56;0.88;;;0.82;;
62679;SDS011;48746;55.578;37.902;2022-09-09T08:19:25;1.73;;;1.15;;
62679;SDS011;48746;55.578;37.902;2022-09-09T08:21:55;2.50;;;0.77;;
62679;SDS011;48746;55.578;37.902;2022-09-09T08:24:21;4.28;;;0.80;;
62679;SDS011;48746;55.578;37.902;2022-09-09T08:26:50;1.30;;;0.90;;
62679;SDS011;48746;55.578;37.902;2022-09-09T08:34:20;0.70;;;0.70;;
62679;SDS011;48746;55.578;37.902;2022-09-09T08:36:49;30.52;;;10.35;;
62679;SDS011;48746;55.578;37.902;2022-09-09T08:39:20;3.25;;;1.00;;
62679;SDS011;48746;55.578;37.902;2022-09-09T08:51:58;1.85;;;1.00;;
62679;SDS011;48746;55.578;37.902;2022-09-09T08:54:25;0.77;;;0.70;;
62679;SDS011;48746;55.578;37.902;2022-09-09T08:56:57;1.65;;;1.02;;
62679;SDS011;48746;55.578;37.902;2022-09-09T08:59:24;3.55;;;1.70;;
62679;SDS011;48746;55.578;37.902;2022-09-09T09:13:15;1.77;;;0.98;;
62679;SDS011;48746;55.578;37.902;2022-09-09T09:15:46;1.90;;;1.00;;
62679;SDS011;48746;55.578;37.902;2022-09-09T09:18:18;1.98;;;0.80;;
62679;SDS011;48746;55.578;37.902;2022-09-09T09:23:56;3.53;;;0.80;;
62679;SDS011;48746;55.578;37.902;2022-09-09T09:26:34;2.78;;;0.70;;
62679;SDS011;48746;55.578;37.902;2022-09-09T09:29:09;1.77;;;1.00;;
62679;SDS011;48746;55.578;37.902;2022-09-09T09:31:41;1.73;;;1.02;;
62679;SDS011;48746;55.578;37.902;2022-09-09T09:34:10;0.73;;;0.68;;
62679;SDS011;48746;55.578;37.902;2022-09-09T09:36:40;2.67;;;0.80;;
62679;SDS011;48746;55.578;37.902;2022-09-09T09:39:10;3.33;;;0.77;;
62679;SDS011;48746;55.578;37.902;2022-09-09T09:41:57;1.23;;;0.73;;
62679;SDS011;48746;55.578;37.902;2022-09-09T09:44:30;1.23;;;0.80;;
62679;SDS011;48746;55.578;37.902;2022-09-09T09:47:11;5.25;;;1.00;;
62679;SDS011;48746;55.578;37.902;2022-09-09T09:49:57;5.05;;;1.00;;
62679;SDS011;48746;55.578;37.902;2022-09-09T09:52:29;2.45;;;1.00;;
62679;SDS011;48746;55.578;37.902;2022-09-09T09:54:58;2.63;;;0.80;;
62679;SDS011;48746;55.578;37.902;2022-09-09T09:57:29;0.80;;;0.70;;
62679;SDS011;48746;55.578;37.902;2022-09-09T10:00:14;0.75;;;0.70;;
62679;SDS011;48746;55.578;37.902;2022-09-09T10:02:42;3.72;;;0.90;;
62679;SDS011;48746;55.578;37.902;2022-09-09T10:05:20;1.80;;;0.80;;
62679;SDS011;48746;55.578;37.902;2022-09-09T10:08:02;0.90;;;0.80;;
62679;SDS011;48746;55.578;37.902;2022-09-09T10:13:19;3.00;;;0.90;;
62679;SDS011;48746;55.578;37.902;2022-09-09T10:15:56;2.50;;;0.80;;
62679;SDS011;48746;55.578;37.902;2022-09-09T10:33:37;0.77;;;0.77;;
62679;SDS011;48746;55.578;37.902;2022-09-09T10:36:23;1.02;;;0.80;;
62679;SDS011;48746;55.578;37.902;2022-09-09T10:55:51;6.82;;;1.33;;
62679;SDS011;48746;55.578;37.902;2022-09-09T10:58:32;2.30;;;1.30;;
62679;SDS011;48746;55.578;37.902;2022-09-09T11:04:15;5.00;;;1.10;;
62679;SDS011;48746;55.578;37.902;2022-09-09T11:06:44;2.65;;;0.95;;
62679;SDS011;48746;55.578;37.902;2022-09-09T11:09:15;10.75;;;1.00;;
62679;SDS011;48746;55.578;37.902;2022-09-09T11:12:02;2.45;;;0.90;;
62679;SDS011;48746;55.578;37.902;2022-09-09T11:17:09;1.77;;;0.70;;
62679;SDS011;48746;55.578;37.902;2022-09-09T11:19:44;3.78;;;0.98;;
62679;SDS011;48746;55.578;37.902;2022-09-09T11:37:09;4.05;;;0.85;;
62679;SDS011;48746;55.578;37.902;2022-09-09T11:42:28;1.42;;;0.80;;
62679;SDS011;48746;55.578;37.902;2022-09-09T11:44:55;0.68;;;0.68;;
62679;SDS011;48746;55.578;37.902;2022-09-09T11:53:16;2.55;;;1.00;;
62679;SDS011;48746;55.578;37.902;2022-09-09T11:55:46;3.35;;;0.82;;
62679;SDS011;48746;55.578;37.902;2022-09-09T12:03:46;1.02;;;0.70;;
62679;SDS011;48746;55.578;37.902;2022-09-09T12:06:32;3.10;;;0.90;;
62679;SDS011;48746;55.578;37.902;2022-09-09T12:11:50;4.85;;;0.80;;
62679;SDS011;48746;55.578;37.902;2022-09-09T12:14:20;1.05;;;0.70;;
62679;SDS011;48746;55.578;37.902;2022-09-09T12:16:48;1.70;;;0.93;;
62679;SDS011;48746;55.578;37.902;2022-09-09T12:19:19;0.98;;;0.68;;
62679;SDS011;48746;55.578;37.902;2022-09-09T12:24:54;1.30;;;0.80;;
62679;SDS011;48746;55.578;37.902;2022-09-09T12:27:46;1.35;;;0.90;;
62679;SDS011;48746;55.578;37.902;2022-09-09T12:30:31;4.32;;;1.00;;
62679;SDS011;48746;55.578;37.902;2022-09-09T12:33:19;0.77;;;0.50;;
62679;SDS011;48746;55.578;37.902;2022-09-09T12:35:51;2.15;;;0.70;;
62679;SDS011;48746;55.578;37.902;2022-09-09T12:38:22;3.20;;;0.82;;
62679;SDS011;48746;55.578;37.902;2022-09-09T12:41:17;1.38;;;1.25;;
62679;SDS011;48746;55.578;37.902;2022-09-09T12:43:45;6.32;;;1.00;;
62679;SDS011;48746;55.578;37.902;2022-09-09T12:46:16;2.92;;;1.33;;
62679;SDS011;48746;55.578;37.902;2022-09-09T12:48:54;2.17;;;1.33;;
62679;SDS011;48746;55.578;37.902;2022-09-09T12:51:27;3.63;;;0.93;;
62679;SDS011;48746;55.578;37.902;2022-09-09T12:53:55;1.42;;;0.68;;
62679;SDS011;48746;55.578;37.902;2022-09-09T12:56:23;1.33;;;0.90;;
62679;SDS011;48746;55.578;37.902;2022-09-09T12:58:52;2.80;;;0.80;;
62679;SDS011;48746;55.578;37.902;2022-09-09T13:01:26;1.30;;;0.70;;
62679;SDS011;48746;55.578;37.902;2022-09-09T13:03:54;2.83;;;0.70;;
62679;SDS011;48746;55.578;37.902;2022-09-09T13:08:51;4.43;;;1.13;;
62679;SDS011;48746;55.578;37.902;2022-09-09T13:11:37;1.08;;;0.60;;
62679;SDS011;48746;55.578;37.902;2022-09-09T13:14:18;2.80;;;0.93;;
62679;SDS011;48746;55.578;37.902;2022-09-09T13:22:50;5.72;;;1.08;;
62679;SDS011;48746;55.578;37.902;2022-09-09T13:27:53;4.28;;;1.00;;
62679;SDS011;48746;55.578;37.902;2022-09-09T13:33:33;1.08;;;0.82;;
62679;SDS011;48746;55.578;37.902;2022-09-09T13:39:16;0.63;;;0.63;;
62679;SDS011;48746;55.578;37.902;2022-09-09T13:44:28;3.92;;;0.80;;
62679;SDS011;48746;55.578;37.902;2022-09-09T13:47:00;1.95;;;0.95;;
62679;SDS011;48746;55.578;37.902;2022-09-09T13:49:31;2.53;;;1.45;;
62679;SDS011;48746;55.578;37.902;2022-09-09T13:52:03;0.90;;;0.68;;
62679;SDS011;48746;55.578;37.902;2022-09-09T13:54:40;2.65;;;1.10;;
62679;SDS011;48746;55.578;37.902;2022-09-09T13:57:16;1.38;;;0.77;;
62679;SDS011;48746;55.578;37.902;2022-09-09T13:59:51;2.95;;;1.15;;
62679;SDS011;48746;55.578;37.902;2022-09-09T14:02:18;1.65;;;1.20;;
62679;SDS011;48746;55.578;37.902;2022-09-09T14:04:44;3.70;;;1.70;;
62679;SDS011;48746;55.578;37.902;2022-09-09T14:07:11;1.77;;;1.00;;
62679;SDS011;48746;55.578;37.902;2022-09-09T14:09:42;4.22;;;1.92;;
62679;SDS011;48746;55.578;37.902;2022-09-09T14:12:09;1.88;;;1.10;;
62679;SDS011;48746;55.578;37.902;2022-09-09T14:14:36;1.13;;;0.70;;
62679;SDS011;48746;55.578;37.902;2022-09-09T14:17:03;3.65;;;0.98;;
62679;SDS011;48746;55.578;37.902;2022-09-09T14:19:30;2.40;;;1.27;;
62679;SDS011;48746;55.578;37.902;2022-09-09T14:21:57;2.92;;;0.80;;
62679;SDS011;48746;55.578;37.902;2022-09-09T14:24:23;4.75;;;2.17;;
62679;SDS011;48746;55.578;37.902;2022-09-09T14:26:50;3.13;;;1.48;;
62679;SDS011;48746;55.578;37.902;2022-09-09T14:29:17;3.97;;;1.50;;
62679;SDS011;48746;55.578;37.902;2022-09-09T14:31:43;5.25;;;1.45;;
62679;SDS011;48746;55.578;37.902;2022-09-09T14:34:09;2.80;;;1.45;;
62679;SDS011;48746;55.578;37.902;2022-09-09T14:36:39;6.10;;;1.33;;
62679;SDS011;48746;55.578;37.902;2022-09-09T14:39:07;1.70;;;1.17;;
62679;SDS011;48746;55.578;37.902;2022-09-09T14:44:40;3.47;;;1.55;;
62679;SDS011;48746;55.578;37.902;2022-09-09T14:47:06;2.65;;;1.20;;
62679;SDS011;48746;55.578;37.902;2022-09-09T14:49:39;1.90;;;0.98;;
62679;SDS011;48746;55.578;37.902;2022-09-09T14:52:05;5.97;;;2.50;;
62679;SDS011;48746;55.578;37.902;2022-09-09T14:54:32;1.90;;;1.13;;
62679;SDS011;48746;55.578;37.902;2022-09-09T14:56:58;4.70;;;1.98;;
62679;SDS011;48746;55.578;37.902;2022-09-09T14:59:24;12.23;;;3.83;;
62679;SDS011;48746;55.578;37.902;2022-09-09T15:01:51;2.13;;;1.42;;
62679;SDS011;48746;55.578;37.902;2022-09-09T15:04:17;3.78;;;2.13;;
62679;SDS011;48746;55.578;37.902;2022-09-09T15:06:44;2.55;;;1.00;;
62679;SDS011;48746;55.578;37.902;2022-09-09T15:09:14;2.05;;;0.88;;
62679;SDS011;48746;55.578;37.902;2022-09-09T15:11:40;2.35;;;1.60;;
62679;SDS011;48746;55.578;37.902;2022-09-09T15:14:07;4.10;;;1.13;;
62679;SDS011;48746;55.578;37.902;2022-09-09T15:16:34;3.63;;;1.95;;
62679;SDS011;48746;55.578;37.902;2022-09-09T15:19:01;1.67;;;0.95;;
62679;SDS011;48746;55.578;37.902;2022-09-09T15:21:32;3.38;;;0.95;;
62679;SDS011;48746;55.578;37.902;2022-09-09T15:24:00;2.92;;;1.58;;
62679;SDS011;48746;55.578;37.902;2022-09-09T15:26:27;7.03;;;1.10;;
62679;SDS011;48746;55.578;37.902;2022-09-09T15:28:53;6.75;;;3.78;;
62679;SDS011;48746;55.578;37.902;2022-09-09T15:31:21;4.03;;;1.73;;
62679;SDS011;48746;55.578;37.902;2022-09-09T15:34:08;2.67;;;1.20;;
62679;SDS011;48746;55.578;37.902;2022-09-09T15:36:43;3.03;;;1.48;;
62679;SDS011;48746;55.578;37.902;2022-09-09T15:39:12;2.67;;;1.10;;
62679;SDS011;48746;55.578;37.902;2022-09-09T15:41:46;6.05;;;1.70;;
62679;SDS011;48746;55.578;37.902;2022-09-09T15:44:13;2.53;;;1.05;;
62679;SDS011;48746;55.578;37.902;2022-09-09T15:46:42;4.65;;;1.20;;
62679;SDS011;48746;55.578;37.902;2022-09-09T15:49:13;4.15;;;1.00;;
62679;SDS011;48746;55.578;37.902;2022-09-09T15:51:42;1.70;;;1.10;;
62679;SDS011;48746;55.578;37.902;2022-09-09T15:54:14;4.00;;;1.88;;
62679;SDS011;48746;55.578;37.902;2022-09-09T15:56:42;2.80;;;1.40;;
62679;SDS011;48746;55.578;37.902;2022-09-09T15:59:08;3.78;;;1.50;;
62679;SDS011;48746;55.578;37.902;2022-09-09T16:01:35;6.50;;;3.22;;
62679;SDS011;48746;55.578;37.902;2022-09-09T16:04:01;2.83;;;1.77;;
62679;SDS011;48746;55.578;37.902;2022-09-09T16:06:28;3.40;;;1.50;;
62679;SDS011;48746;55.578;37.902;2022-09-09T16:08:56;3.70;;;1.60;;
62679;SDS011;48746;55.578;37.902;2022-09-09T16:11:28;2.80;;;1.55;;
62679;SDS011;48746;55.578;37.902;2022-09-09T16:13:56;8.77;;;1.80;;
62679;SDS011;48746;55.578;37.902;2022-09-09T16:16:24;3.00;;;1.60;;
62679;SDS011;48746;55.578;37.902;2022-09-09T16:18:52;6.85;;;1.73;;
62679;SDS011;48746;55.578;37.902;2022-09-09T16:23:55;4.55;;;2.70;;
62679;SDS011;48746;55.578;37.902;2022-09-09T16:26:22;7.85;;;2.47;;
62679;SDS011;48746;55.578;37.902;2022-09-09T16:28:48;6.10;;;2.10;;
62679;SDS011;48746;55.578;37.902;2022-09-09T16:31:18;5.45;;;2.10;;
62679;SDS011;48746;55.578;37.902;2022-09-09T16:33:46;6.88;;;2.17;;
62679;SDS011;48746;55.578;37.902;2022-09-09T16:36:14;4.75;;;2.40;;
62679;SDS011;48746;55.578;37.902;2022-09-09T16:38:41;3.50;;;2.05;;
62679;SDS011;48746;55.578;37.902;2022-09-09T16:41:11;6.05;;;1.88;;
62679;SDS011;48746;55.578;37.902;2022-09-09T16:43:38;4.88;;;2.13;;
62679;SDS011;48746;55.578;37.902;2022-09-09T16:46:16;2.85;;;1.70;;
62679;SDS011;48746;55.578;37.902;2022-09-09T16:48:44;4.38;;;2.00;;
62679;SDS011;48746;55.578;37.902;2022-09-09T16:51:15;4.20;;;1.70;;
62679;SDS011;48746;55.578;37.902;2022-09-09T16:53:43;5.65;;;2.10;;
62679;SDS011;48746;55.578;37.902;2022-09-09T16:56:14;3.05;;;1.65;;
62679;SDS011;48746;55.578;37.902;2022-09-09T16:58:42;2.72;;;1.50;;
62679;SDS011;48746;55.578;37.902;2022-09-09T17:01:14;6.13;;;1.88;;
62679;SDS011;48746;55.578;37.902;2022-09-09T17:03:40;6.75;;;1.58;;
62679;SDS011;48746;55.578;37.902;2022-09-09T17:06:10;6.97;;;1.90;;
62679;SDS011;48746;55.578;37.902;2022-09-09T17:08:38;3.47;;;2.00;;
62679;SDS011;48746;55.578;37.902;2022-09-09T17:11:12;5.13;;;2.03;;
62679;SDS011;48746;55.578;37.902;2022-09-09T17:13:42;4.38;;;2.80;;
62679;SDS011;48746;55.578;37.902;2022-09-09T17:16:10;14.25;;;5.15;;
62679;SDS011;48746;55.578;37.902;2022-09-09T17:18:37;7.68;;;2.25;;
62679;SDS011;48746;55.578;37.902;2022-09-09T17:21:06;9.40;;;2.50;;
62679;SDS011;48746;55.578;37.902;2022-09-09T17:23:36;7.25;;;2.58;;
62679;SDS011;48746;55.578;37.902;2022-09-09T17:26:04;10.40;;;3.17;;
62679;SDS011;48746;55.578;37.902;2022-09-09T17:28:33;16.85;;;6.10;;
62679;SDS011;48746;55.578;37.902;2022-09-09T17:31:04;7.47;;;3.05;;
62679;SDS011;48746;55.578;37.902;2022-09-09T17:33:36;9.30;;;3.55;;
62679;SDS011;48746;55.578;37.902;2022-09-09T17:36:07;8.82;;;3.70;;
62679;SDS011;48746;55.578;37.902;2022-09-09T17:38:37;11.35;;;4.18;;
62679;SDS011;48746;55.578;37.902;2022-09-09T17:41:07;15.45;;;5.88;;
62679;SDS011;48746;55.578;37.902;2022-09-09T17:43:36;15.50;;;4.95;;
62679;SDS011;48746;55.578;37.902;2022-09-09T17:46:06;19.00;;;4.35;;
62679;SDS011;48746;55.578;37.902;2022-09-09T17:48:38;13.63;;;4.65;;
62679;SDS011;48746;55.578;37.902;2022-09-09T17:51:06;10.77;;;5.00;;
62679;SDS011;48746;55.578;37.902;2022-09-09T17:53:38;10.02;;;4.97;;
62679;SDS011;48746;55.578;37.902;2022-09-09T17:58:32;17.77;;;5.30;;
62679;SDS011;48746;55.578;37.902;2022-09-09T18:01:03;25.55;;;13.40;;
62679;SDS011;48746;55.578;37.902;2022-09-09T18:03:38;26.25;;;7.82;;
62679;SDS011;48746;55.578;37.902;2022-09-09T18:06:06;13.95;;;6.35;;
62679;SDS011;48746;55.578;37.902;2022-09-09T18:08:34;18.50;;;7.70;;
62679;SDS011;48746;55.578;37.902;2022-09-09T18:11:04;13.32;;;7.72;;
62679;SDS011;48746;55.578;37.902;2022-09-09T18:13:31;14.48;;;7.18;;
62679;SDS011;48746;55.578;37.902;2022-09-09T18:15:57;22.05;;;10.13;;
62679;SDS011;48746;55.578;37.902;2022-09-09T18:18:24;16.05;;;8.05;;
62679;SDS011;48746;55.578;37.902;2022-09-09T18:20:58;23.95;;;7.47;;
62679;SDS011;48746;55.578;37.902;2022-09-09T18:23:27;20.30;;;7.93;;
62679;SDS011;48746;55.578;37.902;2022-09-09T18:25:54;24.15;;;9.50;;
62679;SDS011;48746;55.578;37.902;2022-09-09T18:28:20;26.02;;;9.32;;
62679;SDS011;48746;55.578;37.902;2022-09-09T18:30:49;24.17;;;11.07;;
62679;SDS011;48746;55.578;37.902;2022-09-09T18:33:15;23.55;;;9.15;;
62679;SDS011;48746;55.578;37.902;2022-09-09T18:35:41;24.75;;;9.35;;